Time;durP1;ratioP1;P1;durP2;ratioP2;P2;SDS_P1;SDS_P2;PMS_P1;PMS_P2;Temp;Humidity;BMP_temperature;BMP_pressure;BME280_temperature;BME280_humidity;BME280_pressure;Samples;Min_cycle;Max_cycle;Signal;HPM_P1;HPM_P2
2024/01/01 00:00:38;;;;;;;47.60;28.00;;;;;;;-0.33;73.41;101136.38;107066;1257;107272;-71
2024/01/01 00:03:26;;;;;;;49.80;28.10;;;;;;;-0.34;73.54;101133.42;107185;1257;109445;-74
2024/01/01 00:05:55;;;;;;;47.00;25.40;;;;;;;-0.37;73.61;101133.34;107199;1260;97841;-70
2024/01/01 00:08:23;;;;;;;49.00;28.90;;;;;;;-0.35;74.03;101140.69;107201;1256;98483;-69
2024/01/01 00:10:51;;;;;;;53.50;28.80;;;;;;;-0.29;74.06;101137.66;107010;1256;111468;-70
2024/01/01 00:13:20;;;;;;;49.10;26.90;;;;;;;-0.23;74.31;101131.27;107123;1260;108363;-70
2024/01/01 00:15:48;;;;;;;45.10;27.10;;;;;;;-0.17;74.71;101135.08;107072;1257;107741;-72
2024/01/01 00:18:16;;;;;;;50.50;28.90;;;;;;;-0.10;75.31;101125.68;107116;1257;97813;-69
2024/01/01 00:20:45;;;;;;;48.80;28.00;;;;;;;-0.03;76.30;101123.94;107232;1257;98389;-71
2024/01/01 00:23:13;;;;;;;53.70;30.20;;;;;;;0.03;76.12;101114.23;106967;1256;111842;-70
2024/01/01 00:25:42;;;;;;;67.90;34.50;;;;;;;0.09;76.09;101113.29;107206;1256;107539;-71
2024/01/01 00:28:10;;;;;;;61.80;33.90;;;;;;;0.15;76.33;101116.39;107199;1260;107428;-70
2024/01/01 00:30:38;;;;;;;59.10;31.40;;;;;;;0.23;76.43;101114.68;107182;1256;97906;-72
2024/01/01 00:33:07;;;;;;;53.80;31.10;;;;;;;0.32;76.57;101119.45;106949;1260;98470;-71
2024/01/01 00:35:35;;;;;;;52.80;31.70;;;;;;;0.39;76.90;101123.05;107264;1256;111719;-70
2024/01/01 00:38:04;;;;;;;51.20;29.40;;;;;;;0.46;76.86;101118.89;107193;1256;108402;-71
2024/01/01 00:40:32;;;;;;;46.80;27.40;;;;;;;0.52;77.58;101121.99;107190;1256;107885;-71
2024/01/01 00:43:01;;;;;;;48.20;27.20;;;;;;;0.55;77.10;101122.20;107105;1257;97935;-69
2024/01/01 00:45:30;;;;;;;49.50;30.20;;;;;;;0.57;77.09;101113.48;107159;1259;97811;-70
2024/01/01 00:48:10;;;;;;;52.30;29.20;;;;;;;0.60;77.48;101119.89;107189;1260;110882;-71
2024/01/01 00:50:39;;;;;;;63.60;31.10;;;;;;;0.63;77.67;101115.56;107210;1256;107871;-69
2024/01/01 00:53:07;;;;;;;54.90;28.90;;;;;;;0.68;78.12;101116.56;106983;1256;108171;-71
2024/01/01 00:55:36;;;;;;;51.70;25.60;;;;;;;0.67;77.62;101111.15;107180;1256;97864;-70
2024/01/01 00:58:06;;;;;;;42.50;24.10;;;;;;;0.58;77.32;101113.45;107180;1261;98026;-70
2024/01/01 01:00:35;;;;;;;45.60;25.10;;;;;;;0.53;77.40;101111.54;107183;1256;111828;-72
2024/01/01 01:03:05;;;;;;;38.80;24.20;;;;;;;0.52;77.29;101109.63;106904;1256;108115;-71
2024/01/01 01:05:33;;;;;;;41.20;25.70;;;;;;;0.51;77.54;101105.44;107224;1256;107365;-70
2024/01/01 01:08:01;;;;;;;42.80;24.30;;;;;;;0.47;76.99;101105.77;107153;1256;97906;-70
2024/01/01 01:10:30;;;;;;;47.30;25.20;;;;;;;0.51;77.36;101105.28;107067;1257;97921;-69
2024/01/01 01:12:59;;;;;;;45.80;25.40;;;;;;;0.51;77.07;101104.02;106946;1256;111470;-71
2024/01/01 01:15:28;;;;;;;45.50;24.10;;;;;;;0.53;77.15;101101.65;107198;1256;108422;-70
2024/01/01 01:17:56;;;;;;;47.40;26.30;;;;;;;0.56;77.24;101097.81;106963;1256;108084;-71
2024/01/01 01:20:25;;;;;;;39.90;23.40;;;;;;;0.59;77.15;101095.95;106883;1256;97868;-71
2024/01/01 01:22:53;;;;;;;44.80;25.70;;;;;;;0.62;77.03;101095.61;107185;1257;97832;-70
2024/01/01 01:25:21;;;;;;;44.20;24.40;;;;;;;0.62;76.97;101088.03;107208;1256;111744;-69
2024/01/01 01:27:50;;;;;;;42.80;24.20;;;;;;;0.64;76.95;101081.23;107054;1256;108323;-70
2024/01/01 01:30:18;;;;;;;45.80;25.00;;;;;;;0.64;76.49;101083.36;107107;1257;106141;-70
2024/01/01 01:32:46;;;;;;;45.40;25.60;;;;;;;0.62;76.32;101084.15;107079;1257;97899;-70
2024/01/01 01:35:16;;;;;;;41.10;25.60;;;;;;;0.59;76.25;101078.42;107163;1259;97967;-71
2024/01/01 01:37:44;;;;;;;54.70;28.20;;;;;;;0.56;76.00;101072.95;107188;1257;110662;-70
2024/01/01 01:40:13;;;;;;;46.70;27.30;;;;;;;0.51;75.71;101067.52;107141;1259;108406;-71
2024/01/01 01:42:47;;;;;;;43.60;27.60;;;;;;;0.44;75.54;101063.02;107163;1257;108410;-71
2024/01/01 01:45:16;;;;;;;42.80;25.20;;;;;;;0.37;75.38;101065.80;107072;1256;98422;-72
2024/01/01 01:47:45;;;;;;;50.10;25.50;;;;;;;0.26;74.95;101069.05;107196;1257;97850;-69
2024/01/01 01:50:16;;;;;;;46.40;26.30;;;;;;;0.15;74.79;101062.60;107251;1257;111793;-71
2024/01/01 01:52:45;;;;;;;44.50;25.20;;;;;;;0.05;74.68;101060.52;107139;1257;107908;-69
2024/01/01 01:55:21;;;;;;;40.30;25.00;;;;;;;-0.05;74.48;101053.17;107128;1257;108758;-70
2024/01/01 01:57:50;;;;;;;40.40;24.00;;;;;;;-0.11;74.38;101051.66;107168;1257;97923;-70
2024/01/01 02:00:19;;;;;;;47.80;27.30;;;;;;;-0.18;74.54;101041.34;107181;1259;99194;-69
2024/01/01 02:02:49;;;;;;;46.80;26.20;;;;;;;-0.26;74.26;101045.20;107232;1256;110786;-71
2024/01/01 02:05:18;;;;;;;46.70;27.50;;;;;;;-0.35;74.52;101040.92;107272;1259;107756;-71
2024/01/01 02:07:47;;;;;;;47.80;25.60;;;;;;;-0.40;74.50;101041.33;107211;1256;108605;-69
2024/01/01 02:10:15;;;;;;;47.50;29.10;;;;;;;-0.45;74.50;101045.18;107127;1257;97834;-72
2024/01/01 02:12:46;;;;;;;50.90;27.80;;;;;;;-0.50;74.46;101042.93;107182;1257;97736;-73
2024/01/01 02:15:15;;;;;;;49.30;26.40;;;;;;;-0.54;74.66;101042.20;106980;1257;111912;-70
2024/01/01 02:17:43;;;;;;;46.50;27.00;;;;;;;-0.61;74.38;101037.36;107234;1257;107106;-69
2024/01/01 02:20:12;;;;;;;47.90;27.40;;;;;;;-0.71;74.19;101035.96;107238;1257;108270;-69
2024/01/01 02:22:46;;;;;;;47.40;27.50;;;;;;;-0.77;74.28;101034.06;107248;1257;97748;-70
2024/01/01 02:25:16;;;;;;;44.70;25.90;;;;;;;-0.81;74.34;101032.98;107257;1256;97919;-70
2024/01/01 02:27:44;;;;;;;48.50;28.40;;;;;;;-0.87;74.55;101022.95;107240;1256;110804;-68
2024/01/01 02:30:12;;;;;;;51.10;28.80;;;;;;;-0.91;74.40;101019.63;107247;1257;107707;-71
2024/01/01 02:32:40;;;;;;;48.60;27.30;;;;;;;-0.91;74.69;101013.80;107241;1257;107342;-71
2024/01/01 02:35:09;;;;;;;46.50;28.10;;;;;;;-0.88;75.08;101015.95;107170;1257;97904;-69
2024/01/01 02:37:38;;;;;;;50.60;25.30;;;;;;;-0.84;75.16;101012.67;107336;1255;97745;-70
2024/01/01 02:40:08;;;;;;;48.10;27.20;;;;;;;-0.82;75.30;101013.09;107222;1257;111343;-69
2024/01/01 02:42:37;;;;;;;47.30;26.70;;;;;;;-0.77;75.60;101009.59;107253;1259;108484;-71
2024/01/01 02:45:07;;;;;;;46.60;27.60;;;;;;;-0.73;75.83;101003.61;107274;1259;107799;-70
2024/01/01 02:47:37;;;;;;;42.90;25.50;;;;;;;-0.67;76.15;100998.09;107256;1257;97852;-70
2024/01/01 02:50:06;;;;;;;44.70;25.30;;;;;;;-0.61;76.22;100992.74;107201;1256;97909;-68
2024/01/01 02:52:35;;;;;;;55.00;28.70;;;;;;;-0.57;76.36;100980.46;107233;1257;110707;-69
2024/01/01 02:55:04;;;;;;;45.30;25.80;;;;;;;-0.50;76.32;100977.88;107234;1257;108429;-70
2024/01/01 02:57:33;;;;;;;44.30;23.60;;;;;;;-0.44;76.33;100978.21;107227;1257;107716;-69
2024/01/01 03:00:01;;;;;;;43.70;26.30;;;;;;;-0.42;76.09;100975.13;107209;1257;97868;-69
2024/01/01 03:02:29;;;;;;;42.30;26.10;;;;;;;-0.38;76.30;100974.45;107220;1257;97721;-69
2024/01/01 03:04:58;;;;;;;50.10;24.60;;;;;;;-0.34;76.19;100973.22;107230;1257;111180;-68
2024/01/01 03:07:26;;;;;;;46.40;23.50;;;;;;;-0.31;76.11;100976.80;107109;1257;108708;-70
2024/01/01 03:09:54;;;;;;;36.30;21.70;;;;;;;-0.31;75.99;100983.35;107230;1257;107562;-67
2024/01/01 03:12:22;;;;;;;38.40;22.90;;;;;;;-0.35;75.68;100983.99;107218;1259;97925;-69
2024/01/01 03:14:51;;;;;;;40.90;23.90;;;;;;;-0.37;75.89;100980.73;107224;1257;99541;-70
2024/01/01 03:17:19;;;;;;;39.50;23.40;;;;;;;-0.39;76.01;100977.30;107259;1257;111646;-69
2024/01/01 03:19:48;;;;;;;36.50;22.70;;;;;;;-0.40;75.87;100977.66;107227;1257;107116;-71
2024/01/01 03:22:16;;;;;;;39.40;22.10;;;;;;;-0.38;76.03;100977.79;107234;1257;108202;-70
2024/01/01 03:24:44;;;;;;;41.70;22.50;;;;;;;-0.36;76.04;100983.50;107106;1257;97842;-70
2024/01/01 03:27:12;;;;;;;40.60;23.70;;;;;;;-0.34;75.84;100980.44;107241;1259;97844;-68
2024/01/01 03:29:41;;;;;;;45.00;24.90;;;;;;;-0.29;76.35;100981.65;107274;1257;111649;-71
2024/01/01 03:32:10;;;;;;;42.20;24.70;;;;;;;-0.25;76.08;100976.94;107269;1258;108886;-69
2024/01/01 03:34:39;;;;;;;40.20;24.00;;;;;;;-0.24;76.16;100969.13;107208;1257;107942;-69
2024/01/01 03:37:07;;;;;;;38.40;23.60;;;;;;;-0.23;76.16;100964.69;107266;1257;97854;-70
2024/01/01 03:39:36;;;;;;;38.70;23.30;;;;;;;-0.22;76.41;100965.69;107266;1259;97742;-70
2024/01/01 03:42:04;;;;;;;38.90;23.10;;;;;;;-0.22;76.10;100964.64;107271;1257;111482;-69
2024/01/01 03:44:33;;;;;;;41.90;23.00;;;;;;;-0.23;76.09;100960.27;107037;1257;107541;-70
2024/01/01 03:47:01;;;;;;;42.40;24.80;;;;;;;-0.25;75.91;100960.89;107235;1257;108059;-70
2024/01/01 03:49:29;;;;;;;44.40;25.90;;;;;;;-0.28;75.69;100959.59;107035;1257;97864;-72
2024/01/01 03:51:58;;;;;;;43.50;25.80;;;;;;;-0.34;75.48;100950.30;107275;1259;98437;-69
2024/01/01 03:54:26;;;;;;;42.70;24.60;;;;;;;-0.40;75.03;100952.14;107257;1257;111830;-70
2024/01/01 03:56:55;;;;;;;51.40;24.90;;;;;;;-0.43;75.36;100945.40;107270;1257;108327;-70
2024/01/01 03:59:24;;;;;;;43.50;26.20;;;;;;;-0.45;75.46;100942.10;107241;1257;108219;-69
2024/01/01 04:01:52;;;;;;;47.60;26.20;;;;;;;-0.48;75.37;100943.63;107258;1259;97861;-69
2024/01/01 04:04:20;;;;;;;48.20;26.70;;;;;;;-0.51;75.31;100942.71;107256;1256;97796;-69
2024/01/01 04:06:49;;;;;;;41.00;23.70;;;;;;;-0.57;74.97;100937.13;107249;1258;111633;-71
2024/01/01 04:09:18;;;;;;;45.70;25.70;;;;;;;-0.63;74.95;100929.61;107231;1258;108973;-70
2024/01/01 04:11:47;;;;;;;51.10;27.30;;;;;;;-0.68;74.72;100927.88;107272;1256;107550;-71
2024/01/01 04:14:16;;;;;;;47.50;27.70;;;;;;;-0.70;74.99;100924.97;107230;1259;97848;-71
2024/01/01 04:16:44;;;;;;;48.80;27.50;;;;;;;-0.72;75.24;100925.55;107294;1256;97824;-69
2024/01/01 04:19:12;;;;;;;46.00;27.00;;;;;;;-0.76;75.42;100925.35;107242;1259;113124;-69
2024/01/01 04:21:41;;;;;;;45.30;27.50;;;;;;;-0.83;75.19;100924.21;107274;1260;107356;-70
2024/01/01 04:24:09;;;;;;;43.20;26.30;;;;;;;-0.90;75.04;100920.63;107234;1256;107775;-70
2024/01/01 04:26:38;;;;;;;47.70;27.70;;;;;;;-0.96;75.16;100915.89;107233;1257;97850;-70
2024/01/01 04:29:06;;;;;;;47.40;26.10;;;;;;;-1.01;75.21;100913.08;107260;1257;97819;-68
2024/01/01 04:31:34;;;;;;;45.70;23.20;;;;;;;-1.05;75.14;100910.79;107206;1257;111734;-71
2024/01/01 04:34:03;;;;;;;46.90;25.10;;;;;;;-1.09;75.08;100901.80;107258;1259;107460;-69
2024/01/01 04:36:32;;;;;;;42.90;24.60;;;;;;;-1.14;74.85;100903.93;107261;1260;108661;-69
2024/01/01 04:39:03;;;;;;;46.40;24.30;;;;;;;-1.23;74.76;100906.52;107260;1260;97890;-70
2024/01/01 04:41:31;;;;;;;40.70;24.30;;;;;;;-1.29;74.90;100909.89;107243;1257;97835;-70
2024/01/01 04:44:00;;;;;;;43.20;24.40;;;;;;;-1.31;74.68;100911.56;107181;1261;112170;-69
2024/01/01 04:46:29;;;;;;;44.20;25.60;;;;;;;-1.32;75.16;100909.33;107307;1259;107692;-69
2024/01/01 04:48:57;;;;;;;42.60;26.20;;;;;;;-1.34;75.07;100909.73;107229;1258;108179;-69
2024/01/01 04:51:26;;;;;;;41.40;24.80;;;;;;;-1.35;75.33;100910.64;107224;1257;97950;-70
2024/01/01 04:53:54;;;;;;;42.60;24.30;;;;;;;-1.33;75.54;100900.38;107250;1259;97738;-70
2024/01/01 04:56:23;;;;;;;50.30;26.60;;;;;;;-1.30;75.89;100901.48;107232;1260;112107;-70
2024/01/01 04:58:53;;;;;;;41.20;23.70;;;;;;;-1.25;76.09;100898.17;107231;1260;108282;-71
2024/01/01 05:01:22;;;;;;;44.30;23.30;;;;;;;-1.20;76.44;100902.20;107228;1263;106271;-73
2024/01/01 05:03:50;;;;;;;42.50;22.90;;;;;;;-1.17;76.34;100891.73;107215;1257;97824;-69
2024/01/01 05:06:19;;;;;;;43.90;23.90;;;;;;;-1.15;76.35;100887.05;107264;1259;97697;-73
2024/01/01 05:08:47;;;;;;;43.10;22.30;;;;;;;-1.10;76.57;100885.45;107277;1258;111308;-71
2024/01/01 05:11:16;;;;;;;43.10;24.40;;;;;;;-1.05;76.66;100880.70;107248;1260;107401;-71
2024/01/01 05:13:44;;;;;;;39.00;21.70;;;;;;;-1.00;76.73;100871.02;107206;1259;107596;-70
2024/01/01 05:16:13;;;;;;;44.80;23.10;;;;;;;-0.97;76.83;100865.94;107282;1256;97834;-71
2024/01/01 05:18:41;;;;;;;38.20;22.20;;;;;;;-0.95;76.92;100870.79;107249;1257;98510;-70
2024/01/01 05:21:10;;;;;;;37.00;23.00;;;;;;;-0.91;76.89;100865.71;107264;1259;111382;-69
2024/01/01 05:23:38;;;;;;;38.80;22.60;;;;;;;-0.87;76.85;100855.70;107251;1257;108312;-70
2024/01/01 05:26:06;;;;;;;35.90;20.90;;;;;;;-0.83;77.02;100856.75;107243;1258;107807;-70
2024/01/01 05:28:35;;;;;;;37.30;23.00;;;;;;;-0.79;76.88;100855.19;107258;1260;97836;-70
2024/01/01 05:31:04;;;;;;;40.20;22.10;;;;;;;-0.76;76.80;100857.05;107213;1257;98399;-70
2024/01/01 05:33:33;;;;;;;37.60;20.50;;;;;;;-0.78;76.51;100856.77;107272;1260;111301;-68
2024/01/01 05:36:02;;;;;;;36.20;21.10;;;;;;;-0.79;76.23;100846.76;107215;1257;108566;-71
2024/01/01 05:38:31;;;;;;;37.40;21.30;;;;;;;-0.78;76.15;100842.30;107258;1260;108593;-71
2024/01/01 05:40:59;;;;;;;41.30;22.00;;;;;;;-0.76;76.49;100834.85;107258;1264;98005;-71
2024/01/01 05:43:27;;;;;;;33.90;20.90;;;;;;;-0.75;76.30;100829.86;107196;1257;97753;-70
2024/01/01 05:45:55;;;;;;;35.60;21.60;;;;;;;-0.76;76.10;100829.02;107257;1260;111930;-70
2024/01/01 05:48:24;;;;;;;42.30;23.90;;;;;;;-0.77;76.13;100828.02;107235;1256;108111;-69
2024/01/01 05:51:03;;;;;;;37.50;23.10;;;;;;;-0.79;75.97;100824.91;107306;1260;106710;-69
2024/01/01 05:53:31;;;;;;;37.90;21.70;;;;;;;-0.83;75.74;100825.44;107081;1257;97748;-71
2024/01/01 05:55:59;;;;;;;38.80;22.70;;;;;;;-0.89;75.38;100820.73;107098;1258;97739;-71
2024/01/01 05:58:28;;;;;;;33.50;19.70;;;;;;;-0.97;75.27;100814.36;107255;1258;111852;-72
2024/01/01 06:00:56;;;;;;;42.20;24.30;;;;;;;-1.08;74.86;100814.63;107209;1256;108480;-70
2024/01/01 06:03:26;;;;;;;40.30;24.70;;;;;;;-1.17;74.95;100817.45;107229;1257;108323;-70
2024/01/01 06:05:54;;;;;;;38.70;23.90;;;;;;;-1.23;75.03;100822.42;107236;1258;98027;-70
2024/01/01 06:08:22;;;;;;;47.60;25.80;;;;;;;-1.28;75.27;100826.83;107212;1260;97841;-71
2024/01/01 06:10:51;;;;;;;50.80;25.70;;;;;;;-1.32;74.96;100818.16;107259;1257;112975;-69
2024/01/01 06:13:19;;;;;;;44.60;24.40;;;;;;;-1.35;75.00;100818.80;107255;1257;107270;-71
2024/01/01 06:15:49;;;;;;;40.80;22.40;;;;;;;-1.38;75.01;100819.98;107225;1257;108485;-71
2024/01/01 06:18:17;;;;;;;36.50;22.30;;;;;;;-1.39;75.29;100820.20;107186;1258;97892;-70
2024/01/01 06:20:46;;;;;;;38.70;22.10;;;;;;;-1.38;75.32;100819.28;107041;1262;97826;-71
2024/01/01 06:23:15;;;;;;;38.10;22.80;;;;;;;-1.37;75.51;100810.48;107060;1257;111444;-69
2024/01/01 06:25:44;;;;;;;44.60;23.30;;;;;;;-1.36;75.52;100806.73;107064;1261;108580;-70
2024/01/01 06:28:13;;;;;;;38.40;21.00;;;;;;;-1.36;75.24;100794.58;107193;1256;108132;-69
2024/01/01 06:30:41;;;;;;;37.30;22.20;;;;;;;-1.35;75.64;100796.46;107214;1255;97941;-70
2024/01/01 06:33:10;;;;;;;43.60;23.90;;;;;;;-1.31;75.56;100798.79;107251;1257;97726;-70
2024/01/01 06:35:38;;;;;;;46.10;26.50;;;;;;;-1.26;75.43;100799.83;107240;1260;111218;-70
2024/01/01 06:38:07;;;;;;;39.40;24.80;;;;;;;-1.19;75.76;100799.39;107248;1257;108382;-70
2024/01/01 06:40:36;;;;;;;41.00;25.30;;;;;;;-1.11;75.90;100798.54;107235;1257;108231;-69
2024/01/01 06:43:04;;;;;;;44.90;23.70;;;;;;;-1.02;76.47;100802.41;107115;1257;98027;-67
2024/01/01 06:45:33;;;;;;;34.30;20.80;;;;;;;-0.91;76.75;100802.33;107041;1262;98384;-70
2024/01/01 06:48:01;;;;;;;43.80;23.50;;;;;;;-0.79;76.73;100802.57;107186;1260;111215;-73
2024/01/01 06:50:30;;;;;;;37.60;22.60;;;;;;;-0.69;76.90;100802.66;107226;1258;108492;-70
2024/01/01 06:52:58;;;;;;;39.30;22.20;;;;;;;-0.55;77.16;100795.76;107180;1257;108275;-71
2024/01/01 06:55:29;;;;;;;41.00;22.00;;;;;;;-0.42;77.48;100791.85;107219;1256;97832;-69
2024/01/01 06:58:01;;;;;;;37.80;22.30;;;;;;;-0.25;77.79;100790.10;107305;1254;97925;-70
2024/01/01 07:00:29;;;;;;;39.00;21.70;;;;;;;-0.12;77.81;100793.94;107308;1257;111611;-69
2024/01/01 07:03:01;;;;;;;33.00;20.60;;;;;;;-0.06;77.88;100791.02;107278;1257;108019;-70
2024/01/01 07:05:30;;;;;;;35.90;20.70;;;;;;;0.04;77.85;100793.26;107282;1259;108391;-69
2024/01/01 07:07:58;;;;;;;32.60;19.90;;;;;;;0.14;78.18;100790.68;107253;1257;98607;-73
2024/01/01 07:10:27;;;;;;;33.90;20.30;;;;;;;0.24;78.32;100791.65;107276;1257;98257;-70
2024/01/01 07:12:55;;;;;;;36.60;20.40;;;;;;;0.37;78.31;100786.30;107311;1254;111953;-70
2024/01/01 07:15:24;;;;;;;42.20;21.30;;;;;;;0.50;78.33;100791.17;107413;1254;107910;-69
2024/01/01 07:17:52;;;;;;;37.90;22.20;;;;;;;0.58;78.29;100789.23;107229;1257;108519;-71
2024/01/01 07:20:22;;;;;;;33.50;21.30;;;;;;;0.64;78.13;100787.17;107171;1257;97840;-69
2024/01/01 07:22:50;;;;;;;32.70;19.90;;;;;;;0.75;78.28;100786.30;107240;1257;98520;-71
2024/01/01 07:25:19;;;;;;;31.80;19.80;;;;;;;0.87;78.48;100782.41;107216;1254;110493;-71
2024/01/01 07:27:47;;;;;;;35.40;20.70;;;;;;;0.95;78.35;100776.52;107325;1254;107873;-69
2024/01/01 07:30:16;;;;;;;35.60;18.90;;;;;;;1.06;78.44;100776.20;107336;1254;108158;-70
2024/01/01 07:32:45;;;;;;;33.40;20.70;;;;;;;1.22;78.69;100780.19;107377;1254;97825;-70
2024/01/01 07:35:13;;;;;;;35.30;20.20;;;;;;;1.39;79.09;100787.86;107280;1256;97844;-71
2024/01/01 07:37:41;;;;;;;37.80;21.00;;;;;;;1.52;79.04;100785.57;107259;1256;111686;-72
2024/01/01 07:40:11;;;;;;;43.60;25.20;;;;;;;1.63;78.73;100783.82;107268;1254;108875;-70
2024/01/01 07:42:39;;;;;;;47.90;28.00;;;;;;;1.76;78.85;100778.71;107340;1254;107655;-70
2024/01/01 07:45:09;;;;;;;42.30;26.60;;;;;;;1.90;78.85;100780.67;107367;1254;97838;-70
2024/01/01 07:47:38;;;;;;;34.90;22.30;;;;;;;2.05;78.88;100783.91;107344;1254;97832;-69
2024/01/01 07:50:07;;;;;;;38.20;22.40;;;;;;;2.16;78.91;100783.88;107314;1257;111325;-69
2024/01/01 07:52:36;;;;;;;38.90;22.40;;;;;;;2.29;78.66;100781.62;107235;1257;107479;-73
2024/01/01 07:55:06;;;;;;;38.00;21.40;;;;;;;2.41;78.44;100773.86;107244;1257;107935;-70
2024/01/01 07:57:35;;;;;;;38.00;21.00;;;;;;;2.56;78.74;100778.71;107274;1257;97854;-70
2024/01/01 08:00:05;;;;;;;40.30;21.10;;;;;;;2.69;78.73;100776.41;107130;1257;97816;-69
2024/01/01 08:02:34;;;;;;;35.50;21.70;;;;;;;2.82;78.44;100771.48;107156;1257;110693;-69
2024/01/01 08:05:02;;;;;;;35.10;21.90;;;;;;;2.93;78.49;100771.38;107313;1257;107867;-69
2024/01/01 08:07:31;;;;;;;37.60;22.40;;;;;;;3.04;78.45;100766.16;107242;1260;108807;-71
2024/01/01 08:09:59;;;;;;;42.20;23.40;;;;;;;3.14;78.29;100764.32;107127;1254;97823;-70
2024/01/01 08:12:28;;;;;;;43.90;25.70;;;;;;;3.25;78.13;100762.29;107315;1254;97723;-70
2024/01/01 08:14:56;;;;;;;42.40;25.50;;;;;;;3.37;77.88;100760.35;107372;1254;111775;-70
2024/01/01 08:17:24;;;;;;;47.00;25.60;;;;;;;3.50;77.58;100760.68;107380;1254;107686;-71
2024/01/01 08:19:53;;;;;;;50.90;27.80;;;;;;;3.68;77.56;100758.36;107353;1254;108774;-69
2024/01/01 08:22:21;;;;;;;64.40;30.10;;;;;;;4.00;76.88;100752.73;107420;1254;97985;-69
2024/01/01 08:24:50;;;;;;;50.50;28.50;;;;;;;4.48;76.59;100749.55;107320;1260;98008;-69
2024/01/01 08:27:18;;;;;;;50.70;30.00;;;;;;;5.01;75.67;100750.98;107339;1259;111183;-69
2024/01/01 08:29:46;;;;;;;48.10;27.90;;;;;;;5.50;75.09;100747.91;107354;1254;107611;-70
2024/01/01 08:32:15;;;;;;;48.40;28.30;;;;;;;5.89;74.65;100739.92;107342;1254;108315;-71
2024/01/01 08:34:43;;;;;;;43.20;26.30;;;;;;;6.33;74.05;100738.13;107327;1257;97847;-69
2024/01/01 08:37:12;;;;;;;39.20;23.60;;;;;;;6.73;73.15;100736.34;107265;1254;97724;-69
2024/01/01 08:39:41;;;;;;;38.50;22.50;;;;;;;7.08;72.22;100729.13;107361;1254;112024;-70
2024/01/01 08:42:09;;;;;;;37.80;21.70;;;;;;;7.44;71.61;100726.64;107288;1257;108351;-69
2024/01/01 08:44:39;;;;;;;37.00;21.40;;;;;;;7.61;71.29;100724.46;106868;1260;458768;-70
2024/01/01 08:47:08;;;;;;;34.50;20.10;;;;;;;7.64;70.54;100722.63;107225;1257;97832;-69
2024/01/01 08:49:37;;;;;;;31.30;19.80;;;;;;;7.95;70.63;100714.52;107268;1258;97828;-69
2024/01/01 08:52:05;;;;;;;32.00;18.90;;;;;;;8.26;70.53;100714.25;107201;1254;111683;-70
2024/01/01 08:54:34;;;;;;;27.90;17.10;;;;;;;8.48;69.47;100713.25;107368;1254;108703;-70
2024/01/01 08:57:03;;;;;;;28.00;17.20;;;;;;;8.49;68.64;100710.29;107318;1254;107658;-71
2024/01/01 08:59:31;;;;;;;26.00;17.20;;;;;;;8.44;68.35;100707.63;107289;1256;98532;-71
2024/01/01 09:02:00;;;;;;;29.90;17.90;;;;;;;8.46;68.49;100705.15;107304;1257;98510;-69
2024/01/01 09:04:28;;;;;;;27.00;15.80;;;;;;;8.52;67.30;100704.92;107270;1257;109874;-69
2024/01/01 09:06:57;;;;;;;23.00;15.70;;;;;;;8.60;67.07;100697.09;107266;1257;108418;-71
2024/01/01 09:09:27;;;;;;;25.80;16.40;;;;;;;8.91;67.29;100694.75;107252;1257;108601;-70
2024/01/01 09:11:56;;;;;;;25.00;15.00;;;;;;;9.26;66.91;100691.65;107238;1257;97835;-71
2024/01/01 09:14:25;;;;;;;27.20;16.40;;;;;;;9.75;66.33;100684.65;107332;1254;97736;-70
2024/01/01 09:16:53;;;;;;;23.80;16.50;;;;;;;10.20;65.94;100688.59;107224;1257;111324;-70
2024/01/01 09:19:22;;;;;;;26.50;15.20;;;;;;;10.58;64.67;100681.52;107210;1257;107832;-69
2024/01/01 09:21:50;;;;;;;24.40;15.20;;;;;;;10.82;64.37;100678.31;107137;1260;106771;-71
2024/01/01 09:24:19;;;;;;;22.30;14.70;;;;;;;11.07;63.28;100676.69;107132;1260;97859;-71
2024/01/01 09:26:47;;;;;;;23.50;14.80;;;;;;;11.26;61.46;100673.16;107202;1257;98384;-71
2024/01/01 09:29:16;;;;;;;20.90;15.20;;;;;;;11.41;61.44;100671.23;107239;1256;111424;-70
2024/01/01 09:31:44;;;;;;;26.00;15.40;;;;;;;11.67;61.28;100663.20;107294;1257;107719;-70
2024/01/01 09:34:13;;;;;;;26.80;14.40;;;;;;;11.88;60.43;100659.13;107259;1255;107228;-69
2024/01/01 09:36:41;;;;;;;22.80;14.20;;;;;;;12.08;60.38;100651.11;107205;1255;97841;-71
2024/01/01 09:39:28;;;;;;;20.80;13.90;;;;;;;12.08;58.54;100647.38;107338;1259;97844;-72
2024/01/01 09:41:57;;;;;;;19.60;13.90;;;;;;;12.21;58.99;100642.09;107297;1259;111844;-69
2024/01/01 09:44:26;;;;;;;22.00;14.60;;;;;;;12.57;58.02;100633.86;107208;1256;108494;-70
2024/01/01 09:46:55;;;;;;;19.50;14.20;;;;;;;12.81;56.27;100633.49;107275;1257;107694;-70
2024/01/01 09:49:24;;;;;;;23.00;14.40;;;;;;;13.16;55.89;100630.20;107317;1257;97834;-69
2024/01/01 09:51:56;;;;;;;21.40;14.20;;;;;;;13.56;55.39;100627.61;107310;1259;97838;-71
2024/01/01 09:54:25;;;;;;;25.20;15.60;;;;;;;13.94;55.52;100625.09;107265;1257;111391;-68
2024/01/01 09:56:53;;;;;;;22.60;14.60;;;;;;;14.18;54.78;100618.02;107279;1257;107822;-69
2024/01/01 09:59:39;;;;;;;18.00;13.70;;;;;;;14.49;54.43;100616.04;107213;1259;107391;-71
2024/01/01 10:02:09;;;;;;;22.90;16.00;;;;;;;14.78;50.85;100606.11;107055;1257;98466;-69
2024/01/01 10:04:37;;;;;;;21.40;14.60;;;;;;;14.75;50.49;100608.19;107344;1256;97846;-71
2024/01/01 10:07:06;;;;;;;22.60;14.90;;;;;;;15.14;51.28;100604.47;107113;1257;111427;-71
2024/01/01 10:09:48;;;;;;;17.30;12.50;;;;;;;15.46;49.71;100596.61;107188;1256;107772;-70
2024/01/01 10:12:21;;;;;;;18.70;13.70;;;;;;;15.54;49.11;100590.35;107197;1257;106963;-70
2024/01/01 10:14:50;;;;;;;;;;;;;;;15.43;49.31;100584.14;107220;1257;97954;-70
2024/01/01 10:17:19;;;;;;;19.00;13.40;;;;;;;15.09;48.13;100585.02;107050;1256;97749;-69
2024/01/01 10:19:52;;;;;;;20.20;14.00;;;;;;;14.87;48.08;100581.13;107187;1257;112068;-70
2024/01/01 10:22:22;;;;;;;18.70;13.10;;;;;;;14.87;48.40;100577.44;107199;1257;106867;-70
2024/01/01 10:24:55;;;;;;;18.00;14.10;;;;;;;15.08;48.61;100575.77;107017;1256;107802;-71
2024/01/01 10:27:24;;;;;;;17.50;13.00;;;;;;;15.19;47.29;100568.20;107185;1257;97927;-72
2024/01/01 10:29:53;;;;;;;22.60;13.40;;;;;;;15.42;47.70;100559.98;107251;1256;97755;-70
2024/01/01 10:32:21;;;;;;;19.90;13.30;;;;;;;15.63;48.03;100554.20;107144;1257;112290;-69
2024/01/01 10:34:50;;;;;;;18.80;13.80;;;;;;;15.58;47.69;100552.05;107167;1257;109205;-69
2024/01/01 10:37:23;;;;;;;24.90;13.70;;;;;;;15.43;47.69;100545.68;107172;1256;108464;-65
2024/01/01 10:39:52;;;;;;;18.70;13.70;;;;;;;15.31;47.82;100534.91;107168;1256;97784;-66
2024/01/01 10:42:21;;;;;;;22.30;13.00;;;;;;;15.17;47.34;100528.00;107075;1257;99659;-65
2024/01/01 10:44:49;;;;;;;20.00;13.70;;;;;;;15.12;47.70;100524.35;107207;1257;111803;-66
2024/01/01 10:47:19;;;;;;;22.90;14.40;;;;;;;15.18;47.27;100519.90;107203;1257;107887;-65
2024/01/01 10:49:56;;;;;;;20.20;14.30;;;;;;;14.88;46.85;100513.23;107193;1256;107490;-65
2024/01/01 10:52:51;;;;;;;20.10;13.80;;;;;;;14.45;47.17;100508.26;107207;1257;97868;-65
2024/01/01 10:55:34;;;;;;;20.90;14.60;;;;;;;14.04;47.69;100506.83;107166;1256;97767;-66
2024/01/01 10:58:44;;;;;;;23.30;15.30;;;;;;;13.60;48.38;100504.48;107157;1259;111994;-65
2024/01/01 11:01:17;;;;;;;24.80;15.10;;;;;;;13.47;48.94;100494.45;106678;1263;107377;-65
2024/01/01 11:03:46;;;;;;;;;;;;;;;13.64;49.35;100486.16;106658;1265;108473;-65
2024/01/01 11:06:33;;;;;;;24.50;16.70;;;;;;;13.62;48.52;100480.08;106734;1261;98088;-66
2024/01/01 11:09:20;;;;;;;28.10;16.50;;;;;;;13.49;49.03;100473.55;106786;1262;97837;-66